Terminal Aerodrome Forecast
Issued by NWS Missoula, MT

Home | Current Version | Previous Version | Text Only | Print | Product List | Glossary On
Versions: 1 2 3 4 5 6 7 8 9 10 11 12 13 14 15 16 17 18 19 20
000
FTUS45 KMSO 212300
TAFGPI
TAF
KGPI 212320Z 2200/2224 02015KT P6SM SCT060
     FM220100 03012KT P6SM VCTS BKN050CB
     FM220300 02009KT P6SM VCSH BKN050
     FM221100 02010KT P6SM -SHRA VCTS BKN030 OVC050CB=

USA.gov is the U.S. government's official web portal to all federal, state and local government web resources and services.